createdAt,value
2022-10-01T00:00:21.277Z,50.902397
2022-10-01T00:01:21.318Z,50.902431
2022-10-01T00:02:21.273Z,50.902412
2022-10-01T00:03:21.336Z,50.902393
2022-10-01T00:04:21.251Z,50.902397
2022-10-01T00:05:21.239Z,50.902393
2022-10-01T00:06:21.238Z,50.902397
2022-10-01T00:07:21.231Z,50.902405
2022-10-01T00:08:21.248Z,50.902416
2022-10-01T00:09:21.254Z,50.902401
2022-10-01T00:10:21.209Z,50.902405
2022-10-01T00:11:21.222Z,50.902409
2022-10-01T00:12:21.198Z,50.902431
2022-10-01T00:13:21.214Z,50.902435
2022-10-01T00:14:21.177Z,50.902409
2022-10-01T00:15:21.171Z,50.902489
2022-10-01T00:16:21.222Z,50.902470
2022-10-01T00:17:21.158Z,50.902447
2022-10-01T00:18:21.178Z,50.902470
2022-10-01T00:19:21.131Z,50.902386
2022-10-01T00:20:21.131Z,50.902439
2022-10-01T00:21:21.125Z,50.902454
2022-10-01T00:22:21.139Z,50.902420
2022-10-01T00:23:21.151Z,50.902393
2022-10-01T00:24:21.111Z,50.902397
2022-10-01T00:25:21.096Z,50.902382
2022-10-01T00:26:21.091Z,50.902370
2022-10-01T00:27:21.076Z,50.902393
2022-10-01T00:28:21.144Z,50.902397
2022-10-01T00:29:21.062Z,50.902382
2022-10-01T00:30:21.062Z,50.902401
2022-10-01T00:31:21.065Z,50.902405
2022-10-01T00:32:21.035Z,50.902409
2022-10-01T00:33:22.057Z,50.902409
2022-10-01T00:34:21.026Z,50.902424
2022-10-01T00:35:21.022Z,50.902431
2022-10-01T00:36:21.016Z,50.902420
2022-10-01T00:37:21.003Z,50.902416
2022-10-01T00:38:21.029Z,50.902439
2022-10-01T00:39:20.987Z,50.902420
2022-10-01T00:40:21.005Z,50.902435
2022-10-01T00:41:20.983Z,50.902409
2022-10-01T00:42:20.964Z,50.902409
2022-10-01T00:43:21.000Z,50.902439
2022-10-01T00:44:20.953Z,50.902393
2022-10-01T00:45:20.941Z,50.902378
2022-10-01T00:46:21.017Z,50.902420
2022-10-01T00:47:20.923Z,50.902378
2022-10-01T00:48:20.947Z,50.902405
2022-10-01T00:49:20.912Z,50.902397
2022-10-01T00:50:20.910Z,50.902412
2022-10-01T00:51:20.901Z,50.902443
2022-10-01T00:52:20.890Z,50.902401
2022-10-01T00:53:20.915Z,50.902397
2022-10-01T00:54:20.879Z,50.902393
2022-10-01T00:55:20.875Z,50.902397
2022-10-01T00:56:20.863Z,50.902370
2022-10-01T00:57:20.856Z,50.902401
2022-10-01T00:58:20.873Z,50.902401
2022-10-01T00:59:20.851Z,50.902390
2022-10-01T01:00:20.830Z,50.902393
2022-10-01T01:01:20.854Z,50.902405
2022-10-01T01:02:20.866Z,50.902416
2022-10-01T01:03:20.841Z,50.902412
2022-10-01T01:04:20.804Z,50.902424
2022-10-01T01:05:20.794Z,50.902439
2022-10-01T01:06:20.784Z,50.902443
2022-10-01T01:07:20.776Z,50.902454
2022-10-01T01:08:20.808Z,50.902435
2022-10-01T01:09:20.753Z,50.902439
2022-10-01T01:10:21.791Z,50.902458
2022-10-01T01:11:20.749Z,50.902443
2022-10-01T01:12:20.731Z,50.902431
2022-10-01T01:13:20.750Z,50.902447
2022-10-01T01:14:20.715Z,50.902424
2022-10-01T01:15:20.716Z,50.902477
2022-10-01T01:16:20.780Z,50.902397
2022-10-01T01:17:20.701Z,50.902397
2022-10-01T01:18:20.716Z,50.902409
2022-10-01T01:19:20.692Z,50.902424
2022-10-01T01:20:20.678Z,50.902397
2022-10-01T01:21:20.664Z,50.902374
2022-10-01T01:22:20.661Z,50.902401
2022-10-01T01:23:20.670Z,50.902431
2022-10-01T01:24:21.639Z,50.902409
2022-10-01T01:25:20.643Z,50.902367
2022-10-01T01:26:20.626Z,50.902431
2022-10-01T01:27:20.622Z,50.902401
2022-10-01T01:28:20.707Z,50.902390
2022-10-01T01:29:20.666Z,50.902370
2022-10-01T01:30:20.619Z,50.902401
2022-10-01T01:31:20.640Z,50.902386
2022-10-01T01:32:20.591Z,50.902390
2022-10-01T01:33:20.610Z,50.902401
2022-10-01T01:34:20.570Z,50.902397
2022-10-01T01:35:20.570Z,50.902435
2022-10-01T01:36:20.565Z,50.902412
2022-10-01T01:37:20.570Z,50.902405
2022-10-01T01:38:20.547Z,50.902374
2022-10-01T01:39:20.559Z,50.902332
2022-10-01T01:40:20.527Z,50.902351
2022-10-01T01:41:20.519Z,50.902382
2022-10-01T01:42:20.512Z,50.902393
2022-10-01T01:43:20.552Z,50.902397
2022-10-01T01:44:20.502Z,50.902390
2022-10-01T01:45:20.488Z,50.902409
2022-10-01T01:46:21.531Z,50.902374
2022-10-01T01:47:20.477Z,50.902401
2022-10-01T01:48:20.494Z,50.902390
2022-10-01T01:49:20.464Z,50.902367
2022-10-01T01:50:20.476Z,50.902393
2022-10-01T01:51:20.460Z,50.902386
2022-10-01T01:52:20.445Z,50.902420
2022-10-01T01:53:20.438Z,50.902397
2022-10-01T01:54:20.454Z,50.902412
2022-10-01T01:55:20.419Z,50.902382
2022-10-01T01:56:20.410Z,50.902378
2022-10-01T01:57:20.405Z,50.902386
2022-10-01T01:58:20.407Z,50.902382
2022-10-01T01:59:20.419Z,50.902359
2022-10-01T02:00:20.374Z,50.902382
2022-10-01T02:01:21.408Z,50.902378
2022-10-01T02:02:20.386Z,50.902393
2022-10-01T02:03:20.363Z,50.902409
2022-10-01T02:04:20.387Z,50.902409
2022-10-01T02:05:20.349Z,50.902435
2022-10-01T02:06:20.344Z,50.902420
2022-10-01T02:07:20.339Z,50.902420
2022-10-01T02:08:20.333Z,50.902412
2022-10-01T02:09:20.349Z,50.902397
2022-10-01T02:10:20.319Z,50.902405
2022-10-01T02:11:20.311Z,50.902386
2022-10-01T02:12:20.319Z,50.902390
2022-10-01T02:13:20.293Z,50.902405
2022-10-01T02:14:20.317Z,50.902409
2022-10-01T02:15:20.280Z,50.902443
2022-10-01T02:16:20.322Z,50.902420
2022-10-01T02:17:20.267Z,50.902412
2022-10-01T02:18:20.270Z,50.902412
2022-10-01T02:19:20.284Z,50.902401
2022-10-01T02:20:20.245Z,50.902409
2022-10-01T02:21:20.250Z,50.902397
2022-10-01T02:22:20.230Z,50.902401
2022-10-01T02:23:20.219Z,50.902401
2022-10-01T02:24:20.243Z,50.902390
2022-10-01T02:25:20.203Z,50.902374
2022-10-01T02:26:20.195Z,50.902405
2022-10-01T02:27:20.190Z,50.902409
2022-10-01T02:28:20.258Z,50.902412
2022-10-01T02:29:20.195Z,50.902393
2022-10-01T02:30:20.160Z,50.902382
2022-10-01T02:31:20.192Z,50.902378
2022-10-01T02:32:20.152Z,50.902397
2022-10-01T02:33:20.145Z,50.902397
2022-10-01T02:34:20.547Z,50.902386
2022-10-01T02:35:21.136Z,50.902397
2022-10-01T02:36:20.120Z,50.902393
2022-10-01T02:37:20.114Z,50.902393
2022-10-01T02:38:20.109Z,50.902390
2022-10-01T02:39:20.183Z,50.902386
2022-10-01T02:40:20.103Z,50.902393
2022-10-01T02:41:20.083Z,50.902401
2022-10-01T02:42:20.079Z,50.902390
2022-10-01T02:43:20.071Z,50.902390
2022-10-01T02:44:20.058Z,50.902397
2022-10-01T02:45:20.251Z,50.902409
2022-10-01T02:46:20.137Z,50.902409
2022-10-01T02:47:20.033Z,50.902382
2022-10-01T02:48:20.028Z,50.902374
2022-10-01T02:49:20.017Z,50.902390
2022-10-01T02:50:20.036Z,50.902405
2022-10-01T02:51:20.005Z,50.902405
2022-10-01T02:52:19.995Z,50.902374
2022-10-01T02:53:19.986Z,50.902405
2022-10-01T02:54:19.980Z,50.902382
2022-10-01T02:55:19.988Z,50.902405
2022-10-01T02:56:19.967Z,50.902401
2022-10-01T02:57:19.956Z,50.902397
2022-10-01T02:58:19.947Z,50.902382
2022-10-01T02:59:19.995Z,50.902382
2022-10-01T03:00:19.956Z,50.902405
2022-10-01T03:01:19.945Z,50.902397
2022-10-01T03:02:20.091Z,50.902397
2022-10-01T03:03:19.906Z,50.902401
2022-10-01T03:04:19.902Z,50.902393
2022-10-01T03:05:19.919Z,50.902401
2022-10-01T03:06:19.898Z,50.902393
2022-10-01T03:07:19.883Z,50.902390
2022-10-01T03:08:19.875Z,50.902382
2022-10-01T03:09:19.869Z,50.902374
2022-10-01T03:10:19.883Z,50.902382
2022-10-01T03:11:19.854Z,50.902370
2022-10-01T03:12:19.847Z,50.902359
2022-10-01T03:13:19.850Z,50.902386
2022-10-01T03:14:19.832Z,50.902367
2022-10-01T03:15:19.846Z,50.902340
2022-10-01T03:16:19.838Z,50.902370
2022-10-01T03:17:19.814Z,50.902397
2022-10-01T03:18:19.805Z,50.902401
2022-10-01T03:19:19.800Z,50.902367
2022-10-01T03:20:19.816Z,50.902374
2022-10-01T03:21:19.787Z,50.902359
2022-10-01T03:22:19.776Z,50.902374
2022-10-01T03:23:19.775Z,50.902367
2022-10-01T03:24:19.756Z,50.902363
2022-10-01T03:25:19.777Z,50.902363
2022-10-01T03:26:19.746Z,50.902367
2022-10-01T03:27:19.741Z,50.902359
2022-10-01T03:28:19.746Z,50.902374
2022-10-01T03:29:19.722Z,50.902382
2022-10-01T03:30:19.738Z,50.902344
2022-10-01T03:31:19.802Z,50.902332
2022-10-01T03:32:19.691Z,50.902348
2022-10-01T03:33:19.686Z,50.902393
2022-10-01T03:34:19.681Z,50.902424
2022-10-01T03:35:19.697Z,50.902386
2022-10-01T03:36:19.668Z,50.902393
2022-10-01T03:37:19.663Z,50.902367
2022-10-01T03:38:19.652Z,50.902370
2022-10-01T03:39:19.644Z,50.902370
2022-10-01T03:40:19.662Z,50.902351
2022-10-01T03:41:19.633Z,50.902359
2022-10-01T03:42:19.620Z,50.902355
2022-10-01T03:43:19.615Z,50.902374
2022-10-01T03:44:19.619Z,50.902359
2022-10-01T03:45:19.616Z,50.902382
2022-10-01T03:46:19.594Z,50.902382
2022-10-01T03:47:19.580Z,50.902401
2022-10-01T03:48:19.570Z,50.902382
2022-10-01T03:49:19.570Z,50.902374
2022-10-01T03:50:19.581Z,50.902378
2022-10-01T03:51:20.013Z,50.902374
2022-10-01T03:52:20.551Z,50.902382
2022-10-01T03:53:19.544Z,50.902386
2022-10-01T03:54:19.564Z,50.902416
2022-10-01T03:55:51.463Z,50.902382
2022-10-01T03:56:19.514Z,50.902393
2022-10-01T03:57:19.505Z,50.902386
2022-10-01T03:58:19.498Z,50.902393
2022-10-01T03:59:19.495Z,50.902382
2022-10-01T04:00:19.508Z,50.902351
2022-10-01T04:01:19.536Z,50.902367
2022-10-01T04:02:19.607Z,50.902390
2022-10-01T04:03:19.467Z,50.902393
2022-10-01T04:04:19.460Z,50.902390
2022-10-01T04:05:19.475Z,50.902390
2022-10-01T04:06:19.447Z,50.902390
2022-10-01T04:07:19.435Z,50.902382
2022-10-01T04:08:24.073Z,50.902355
2022-10-01T04:09:21.417Z,50.902370
2022-10-01T04:10:19.438Z,50.902374
2022-10-01T04:11:19.404Z,50.902386
2022-10-01T04:12:19.402Z,50.902370
2022-10-01T04:13:19.396Z,50.902344
2022-10-01T04:14:19.389Z,50.902374
2022-10-01T04:15:19.442Z,50.902370
2022-10-01T04:16:19.445Z,50.902390
2022-10-01T04:17:19.362Z,50.902367
2022-10-01T04:18:19.356Z,50.902367
2022-10-01T04:19:19.343Z,50.902374
2022-10-01T04:20:19.387Z,50.902378
2022-10-01T04:21:19.327Z,50.902374
2022-10-01T04:22:19.321Z,50.902355
2022-10-01T04:23:19.317Z,50.902340
2022-10-01T04:24:19.298Z,50.902382
2022-10-01T04:25:19.328Z,50.902363
2022-10-01T04:26:19.291Z,50.902359
2022-10-01T04:27:19.287Z,50.902351
2022-10-01T04:28:19.349Z,50.902374
2022-10-01T04:29:19.252Z,50.902393
2022-10-01T04:30:20.379Z,50.902401
2022-10-01T04:31:19.285Z,50.902397
2022-10-01T04:32:19.243Z,50.902386
2022-10-01T04:33:19.230Z,50.902412
2022-10-01T04:34:19.220Z,50.902363
2022-10-01T04:35:19.212Z,50.902397
2022-10-01T04:36:19.236Z,50.902378
2022-10-01T04:37:19.209Z,50.902397
2022-10-01T04:38:19.220Z,50.902405
2022-10-01T04:39:19.186Z,50.902382
2022-10-01T04:40:19.178Z,50.902405
2022-10-01T04:41:19.197Z,50.902451
2022-10-01T04:42:19.175Z,50.902439
2022-10-01T04:43:19.159Z,50.902416
2022-10-01T04:44:19.148Z,50.902439
2022-10-01T04:45:19.142Z,50.902435
2022-10-01T04:46:19.250Z,50.902393
2022-10-01T04:47:19.128Z,50.902420
2022-10-01T04:48:19.136Z,50.902451
2022-10-01T04:49:19.131Z,50.902390
2022-10-01T04:50:19.123Z,50.902416
2022-10-01T04:51:19.126Z,50.902428
2022-10-01T04:52:19.103Z,50.902416
2022-10-01T04:53:19.100Z,50.902424
2022-10-01T04:54:19.082Z,50.902374
2022-10-01T04:55:19.072Z,50.902412
2022-10-01T04:56:19.116Z,50.902401
2022-10-01T04:57:19.052Z,50.902420
2022-10-01T04:58:19.048Z,50.902435
2022-10-01T04:59:19.045Z,50.902454
2022-10-01T05:00:19.038Z,50.902435
2022-10-01T05:01:19.081Z,50.902416
2022-10-01T05:02:19.163Z,50.902428
2022-10-01T05:03:19.003Z,50.902420
2022-10-01T05:04:18.994Z,50.902416
2022-10-01T05:05:18.985Z,50.902443
2022-10-01T05:06:19.001Z,50.902431
2022-10-01T05:07:18.974Z,50.902443
2022-10-01T05:08:18.968Z,50.902428
2022-10-01T05:09:18.951Z,50.902435
2022-10-01T05:10:19.020Z,50.902439
2022-10-01T05:11:18.962Z,50.902454
2022-10-01T05:12:22.418Z,50.902451
2022-10-01T05:13:20.927Z,50.902424
2022-10-01T05:14:18.916Z,50.902439
2022-10-01T05:15:18.912Z,50.902435
2022-10-01T05:16:18.964Z,50.902454
2022-10-01T05:17:18.894Z,50.902451
2022-10-01T05:18:18.887Z,50.902470
2022-10-01T05:19:18.880Z,50.902470
2022-10-01T05:20:18.878Z,50.902451
2022-10-01T05:21:18.882Z,50.902458
2022-10-01T05:22:18.853Z,50.902454
2022-10-01T05:23:18.847Z,50.902470
2022-10-01T05:24:18.839Z,50.902466
2022-10-01T05:25:18.831Z,50.902477
2022-10-01T05:26:18.855Z,50.902473
2022-10-01T05:27:18.822Z,50.902489
2022-10-01T05:28:22.349Z,50.902458
2022-10-01T05:29:19.806Z,50.902454
2022-10-01T05:30:18.793Z,50.902466
2022-10-01T05:31:18.903Z,50.902443
2022-10-01T05:32:18.772Z,50.902462
2022-10-01T05:33:18.764Z,50.902462
2022-10-01T05:34:18.747Z,50.902493
2022-10-01T05:35:19.749Z,50.902470
2022-10-01T05:36:18.743Z,50.902466
2022-10-01T05:37:18.763Z,50.902451
2022-10-01T05:38:18.724Z,50.902477
2022-10-01T05:39:18.723Z,50.902420
2022-10-01T05:40:18.709Z,50.902477
2022-10-01T05:41:18.749Z,50.902458
2022-10-01T05:42:18.722Z,50.902473
2022-10-01T05:43:18.694Z,50.902473
2022-10-01T05:44:18.677Z,50.902470
2022-10-01T05:45:18.666Z,50.902454
2022-10-01T05:46:18.662Z,50.902473
2022-10-01T05:47:18.687Z,50.902531
2022-10-01T05:48:18.685Z,50.902508
2022-10-01T05:49:18.633Z,50.902470
2022-10-01T05:50:18.629Z,50.902458
2022-10-01T05:51:18.625Z,50.902451
2022-10-01T05:52:18.642Z,50.902443
2022-10-01T05:53:18.610Z,50.902435
2022-10-01T05:54:18.608Z,50.902454
2022-10-01T05:55:18.590Z,50.902458
2022-10-01T05:56:18.612Z,50.902470
2022-10-01T05:57:18.602Z,50.902466
2022-10-01T05:58:18.570Z,50.902481
2022-10-01T05:59:18.568Z,50.902462
2022-10-01T06:00:18.557Z,50.902500
2022-10-01T06:01:18.544Z,50.902504
2022-10-01T06:02:18.718Z,50.902477
2022-10-01T06:03:18.550Z,50.902435
2022-10-01T06:04:18.526Z,50.902473
2022-10-01T06:05:18.511Z,50.902462
2022-10-01T06:06:19.509Z,50.902451
2022-10-01T06:07:18.526Z,50.902466
2022-10-01T06:08:18.491Z,50.902485
2022-10-01T06:09:18.481Z,50.902439
2022-10-01T06:10:18.478Z,50.902447
2022-10-01T06:11:18.584Z,50.902431
2022-10-01T06:12:20.039Z,50.902458
2022-10-01T06:13:19.450Z,50.902485
2022-10-01T06:14:18.439Z,50.902462
2022-10-01T06:15:18.454Z,50.902473
2022-10-01T06:16:18.478Z,50.902451
2022-10-01T06:17:18.450Z,50.902439
2022-10-01T06:18:18.412Z,50.902431
2022-10-01T06:19:18.446Z,50.902451
2022-10-01T06:20:18.395Z,50.902451
2022-10-01T06:21:18.386Z,50.902447
2022-10-01T06:22:18.403Z,50.902443
2022-10-01T06:23:18.374Z,50.902451
2022-10-01T06:24:18.362Z,50.902439
2022-10-01T06:25:18.369Z,50.902470
2022-10-01T06:26:18.365Z,50.902477
2022-10-01T06:27:18.368Z,50.902466
2022-10-01T06:28:18.378Z,50.902428
2022-10-01T06:29:18.338Z,50.902473
2022-10-01T06:30:18.327Z,50.902470
2022-10-01T06:31:18.363Z,50.902462
2022-10-01T06:32:18.343Z,50.902470
2022-10-01T06:33:18.303Z,50.902481
2022-10-01T06:34:18.291Z,50.902458
2022-10-01T06:35:18.298Z,50.902458
2022-10-01T06:36:18.279Z,50.902466
2022-10-01T06:37:18.294Z,50.902447
2022-10-01T06:38:18.260Z,50.902447
2022-10-01T06:39:18.246Z,50.902447
2022-10-01T06:40:19.250Z,50.902458
2022-10-01T06:41:18.247Z,50.902454
2022-10-01T06:42:18.262Z,50.902443
2022-10-01T06:43:18.223Z,50.902451
2022-10-01T06:44:18.216Z,50.902447
2022-10-01T06:45:18.216Z,50.902435
2022-10-01T06:46:18.260Z,50.902435
2022-10-01T06:47:18.219Z,50.902451
2022-10-01T06:48:18.194Z,50.902462
2022-10-01T06:49:18.179Z,50.902451
2022-10-01T06:50:18.176Z,50.902447
2022-10-01T06:51:18.176Z,50.902451
2022-10-01T06:52:18.181Z,50.902447
2022-10-01T06:53:18.149Z,50.902428
2022-10-01T06:54:18.153Z,50.902435
2022-10-01T06:55:18.136Z,50.902443
2022-10-01T06:56:18.128Z,50.902443
2022-10-01T06:57:18.167Z,50.902405
2022-10-01T06:58:18.115Z,50.902435
2022-10-01T06:59:18.113Z,50.902435
2022-10-01T07:00:18.099Z,50.902447
2022-10-01T07:01:18.157Z,50.902435
2022-10-01T07:02:18.157Z,50.902412
2022-10-01T07:03:18.076Z,50.902416
2022-10-01T07:04:18.068Z,50.902428
2022-10-01T07:05:18.059Z,50.902431
2022-10-01T07:06:18.052Z,50.902428
2022-10-01T07:07:18.078Z,50.902439
2022-10-01T07:08:18.044Z,50.902435
2022-10-01T07:09:18.025Z,50.902435
2022-10-01T07:10:18.026Z,50.902420
2022-10-01T07:11:18.013Z,50.902428
2022-10-01T07:12:18.005Z,50.902409
2022-10-01T07:13:18.025Z,50.902412
2022-10-01T07:14:17.989Z,50.902428
2022-10-01T07:15:17.986Z,50.902424
2022-10-01T07:16:18.009Z,50.902412
2022-10-01T07:17:17.973Z,50.902424
2022-10-01T07:18:17.989Z,50.902416
2022-10-01T07:19:17.948Z,50.902409
2022-10-01T07:20:17.949Z,50.902405
2022-10-01T07:21:17.939Z,50.902412
2022-10-01T07:22:17.928Z,50.902416
2022-10-01T07:23:17.948Z,50.902393
2022-10-01T07:24:17.919Z,50.902386
2022-10-01T07:25:17.906Z,50.902397
2022-10-01T07:26:17.902Z,50.902405
2022-10-01T07:27:17.890Z,50.902412
2022-10-01T07:28:18.129Z,50.902405
2022-10-01T07:29:17.926Z,50.902412
2022-10-01T07:30:17.873Z,50.902397
2022-10-01T07:31:17.895Z,50.902393
2022-10-01T07:32:18.926Z,50.902393
2022-10-01T07:33:17.879Z,50.902405
2022-10-01T07:34:17.839Z,50.902397
2022-10-01T07:35:17.898Z,50.902390
2022-10-01T07:36:17.863Z,50.902382
2022-10-01T07:37:17.819Z,50.902382
2022-10-01T07:38:17.830Z,50.902420
2022-10-01T07:39:17.844Z,50.902393
2022-10-01T07:40:17.806Z,50.902393
2022-10-01T07:41:17.790Z,50.902382
2022-10-01T07:42:17.789Z,50.902401
2022-10-01T07:43:17.797Z,50.902416
2022-10-01T07:44:17.755Z,50.902412
2022-10-01T07:45:17.755Z,50.902466
2022-10-01T07:46:17.787Z,50.902435
2022-10-01T07:47:17.740Z,50.902397
2022-10-01T07:48:17.763Z,50.902424
2022-10-01T07:49:17.729Z,50.902355
2022-10-01T07:50:17.717Z,50.902378
2022-10-01T07:51:17.710Z,50.902378
2022-10-01T07:52:17.713Z,50.902340
2022-10-01T07:53:17.732Z,50.902344
2022-10-01T07:54:17.688Z,50.902382
2022-10-01T07:55:17.685Z,50.902378
2022-10-01T07:56:17.674Z,50.902344
2022-10-01T07:57:17.662Z,50.902321
2022-10-01T07:58:17.686Z,50.902328
2022-10-01T07:59:17.655Z,50.902325
2022-10-01T08:00:17.650Z,50.902355
2022-10-01T08:01:17.688Z,50.902348
2022-10-01T08:02:17.662Z,50.902363
2022-10-01T08:03:17.663Z,50.902443
2022-10-01T08:04:17.616Z,50.902401
2022-10-01T08:05:17.608Z,50.902443
2022-10-01T08:06:20.822Z,50.902397
2022-10-01T08:07:18.590Z,50.902390
2022-10-01T08:08:17.615Z,50.902409
2022-10-01T08:09:17.582Z,50.902397
2022-10-01T08:10:17.574Z,50.902378
2022-10-01T08:11:17.569Z,50.902355
2022-10-01T08:12:17.567Z,50.902390
2022-10-01T08:13:17.572Z,50.902397
2022-10-01T08:14:17.538Z,50.902355
2022-10-01T08:15:17.536Z,50.902367
2022-10-01T08:16:17.541Z,50.902386
2022-10-01T08:17:17.524Z,50.902401
2022-10-01T08:18:17.542Z,50.902405
2022-10-01T08:19:17.513Z,50.902363
2022-10-01T08:20:17.500Z,50.902355
2022-10-01T08:21:17.487Z,50.902363
2022-10-01T08:22:17.484Z,50.902378
2022-10-01T08:23:17.496Z,50.902397
2022-10-01T08:24:17.473Z,50.902382
2022-10-01T08:25:17.462Z,50.902340
2022-10-01T08:26:17.451Z,50.902378
2022-10-01T08:27:17.438Z,50.902355
2022-10-01T08:28:17.494Z,50.902374
2022-10-01T08:29:17.426Z,50.902355
2022-10-01T08:30:17.423Z,50.902405
2022-10-01T08:31:17.460Z,50.902405
2022-10-01T08:32:17.401Z,50.902382
2022-10-01T08:33:17.420Z,50.902355
2022-10-01T08:34:17.394Z,50.902378
2022-10-01T08:35:17.380Z,50.902370
2022-10-01T08:36:17.363Z,50.902386
2022-10-01T08:37:18.366Z,50.902332
2022-10-01T08:38:17.362Z,50.902370
2022-10-01T08:39:17.409Z,50.902386
2022-10-01T08:40:17.344Z,50.902363
2022-10-01T08:41:21.266Z,50.902374
2022-10-01T08:42:19.327Z,50.902367
2022-10-01T08:43:17.323Z,50.902367
2022-10-01T08:44:17.343Z,50.902374
2022-10-01T08:45:17.311Z,50.902378
2022-10-01T08:46:17.336Z,50.902378
2022-10-01T08:47:17.295Z,50.902393
2022-10-01T08:48:17.286Z,50.902382
2022-10-01T08:49:17.308Z,50.902351
2022-10-01T08:50:17.272Z,50.902328
2022-10-01T08:51:17.268Z,50.902340
2022-10-01T08:52:17.273Z,50.902386
2022-10-01T08:53:17.247Z,50.902321
2022-10-01T08:54:17.268Z,50.902348
2022-10-01T08:55:17.226Z,50.902386
2022-10-01T08:56:17.225Z,50.902416
2022-10-01T08:57:17.217Z,50.902374
2022-10-01T08:58:17.210Z,50.902367
2022-10-01T08:59:17.227Z,50.902412
2022-10-01T09:00:17.226Z,50.902470
2022-10-01T09:01:17.240Z,50.902382
2022-10-01T09:02:17.177Z,50.902401
2022-10-01T09:03:17.194Z,50.902390
2022-10-01T09:04:17.205Z,50.902355
2022-10-01T09:05:17.150Z,50.902386
2022-10-01T09:06:17.149Z,50.902344
2022-10-01T09:07:17.140Z,50.902348
2022-10-01T09:08:17.161Z,50.902439
2022-10-01T09:09:17.127Z,50.902382
2022-10-01T09:10:17.119Z,50.902374
2022-10-01T09:11:17.110Z,50.902382
2022-10-01T09:12:17.137Z,50.902378
2022-10-01T09:13:17.131Z,50.902405
2022-10-01T09:14:18.091Z,50.902382
2022-10-01T09:15:17.085Z,50.902382
2022-10-01T09:16:17.087Z,50.902435
2022-10-01T09:17:17.067Z,50.902363
2022-10-01T09:18:17.059Z,50.902374
2022-10-01T09:19:17.090Z,50.902367
2022-10-01T09:20:17.051Z,50.902397
2022-10-01T09:21:17.029Z,50.902397
2022-10-01T09:22:17.027Z,50.902409
2022-10-01T09:23:17.017Z,50.902390
2022-10-01T09:24:17.035Z,50.902359
2022-10-01T09:25:17.002Z,50.902370
2022-10-01T09:26:16.998Z,50.902386
2022-10-01T09:27:16.989Z,50.902359
2022-10-01T09:28:17.044Z,50.902321
2022-10-01T09:29:17.004Z,50.902298
2022-10-01T09:30:16.972Z,50.902332
2022-10-01T09:31:17.064Z,50.902298
2022-10-01T09:32:16.948Z,50.902374
2022-10-01T09:33:16.953Z,50.902370
2022-10-01T09:34:16.962Z,50.902359
2022-10-01T09:35:16.931Z,50.902370
2022-10-01T09:36:16.921Z,50.902332
2022-10-01T09:37:16.918Z,50.902336
2022-10-01T09:38:16.902Z,50.902348
2022-10-01T09:39:16.926Z,50.902355
2022-10-01T09:40:16.951Z,50.902370
2022-10-01T09:41:16.885Z,50.902378
2022-10-01T09:42:16.877Z,50.902351
2022-10-01T09:43:16.866Z,50.902355
2022-10-01T09:44:18.823Z,50.902420
2022-10-01T09:45:17.864Z,50.902393
2022-10-01T09:46:16.968Z,50.902378
2022-10-01T09:47:16.843Z,50.902386
2022-10-01T09:48:16.834Z,50.902374
2022-10-01T09:49:16.850Z,50.902340
2022-10-01T09:50:16.825Z,50.902351
2022-10-01T09:51:16.814Z,50.902370
2022-10-01T09:52:16.800Z,50.902378
2022-10-01T09:53:16.794Z,50.902378
2022-10-01T09:54:16.816Z,50.902348
2022-10-01T09:55:24.199Z,50.902351
2022-10-01T09:56:16.778Z,50.902351
2022-10-01T09:57:16.764Z,50.902367
2022-10-01T09:58:16.755Z,50.902378
2022-10-01T09:59:16.778Z,50.902363
2022-10-01T10:00:16.749Z,50.902374
2022-10-01T10:01:16.733Z,50.902351
2022-10-01T10:02:16.806Z,50.902386
2022-10-01T10:03:16.850Z,50.902374
2022-10-01T10:04:20.068Z,50.902390
2022-10-01T10:05:17.721Z,50.902397
2022-10-01T10:06:16.718Z,50.902393
2022-10-01T10:07:16.687Z,50.902397
2022-10-01T10:08:16.681Z,50.902401
2022-10-01T10:09:16.698Z,50.902409
2022-10-01T10:10:16.689Z,50.902382
2022-10-01T10:11:16.669Z,50.902401
2022-10-01T10:12:16.649Z,50.902409
2022-10-01T10:13:17.643Z,50.902409
2022-10-01T10:14:17.473Z,50.902401
2022-10-01T10:15:16.646Z,50.902382
2022-10-01T10:16:16.747Z,50.902370
2022-10-01T10:17:16.611Z,50.902420
2022-10-01T10:18:19.200Z,50.902378
2022-10-01T10:19:18.623Z,50.902390
2022-10-01T10:20:16.594Z,50.902401
2022-10-01T10:21:16.583Z,50.902344
2022-10-01T10:22:16.574Z,50.902367
2022-10-01T10:23:16.572Z,50.902447
2022-10-01T10:24:16.589Z,50.902382
2022-10-01T10:25:16.573Z,50.902416
2022-10-01T10:26:16.548Z,50.902412
2022-10-01T10:27:16.544Z,50.902405
2022-10-01T10:28:16.621Z,50.902405
2022-10-01T10:29:16.554Z,50.902363
2022-10-01T10:30:16.519Z,50.902363
2022-10-01T10:31:16.610Z,50.902420
2022-10-01T10:32:16.505Z,50.902420
2022-10-01T10:33:16.501Z,50.902435
2022-10-01T10:34:16.544Z,50.902321
2022-10-01T10:35:16.478Z,50.902367
2022-10-01T10:36:16.476Z,50.902382
2022-10-01T10:37:16.464Z,50.902382
2022-10-01T10:38:16.461Z,50.902405
2022-10-01T10:39:16.480Z,50.902412
2022-10-01T10:40:16.440Z,50.902401
2022-10-01T10:41:16.441Z,50.902443
2022-10-01T10:42:16.429Z,50.902443
2022-10-01T10:43:16.415Z,50.902409
2022-10-01T10:44:16.443Z,50.902447
2022-10-01T10:45:16.402Z,50.902443
2022-10-01T10:46:16.442Z,50.902451
2022-10-01T10:47:16.384Z,50.902435
2022-10-01T10:48:16.377Z,50.902470
2022-10-01T10:49:16.381Z,50.902416
2022-10-01T10:50:16.386Z,50.902405
2022-10-01T10:51:16.367Z,50.902409
2022-10-01T10:52:16.350Z,50.902382
2022-10-01T10:53:16.346Z,50.902416
2022-10-01T10:54:16.338Z,50.902401
2022-10-01T10:55:16.355Z,50.902412
2022-10-01T10:56:16.318Z,50.902401
2022-10-01T10:57:16.305Z,50.902401
2022-10-01T10:58:16.295Z,50.902409
2022-10-01T10:59:16.294Z,50.902340
2022-10-01T11:00:16.311Z,50.902386
2022-10-01T11:01:16.381Z,50.902420
2022-10-01T11:02:16.381Z,50.902405
2022-10-01T11:03:16.268Z,50.902405
2022-10-01T11:04:16.308Z,50.902420
2022-10-01T11:05:16.272Z,50.902386
2022-10-01T11:06:16.235Z,50.902370
2022-10-01T11:07:16.243Z,50.902401
2022-10-01T11:08:17.946Z,50.902374
2022-10-01T11:09:17.215Z,50.902416
2022-10-01T11:10:16.225Z,50.902405
2022-10-01T11:11:17.208Z,50.902397
2022-10-01T11:12:16.193Z,50.902412
2022-10-01T11:13:16.184Z,50.902401
2022-10-01T11:14:20.134Z,50.902420
2022-10-01T11:15:17.203Z,50.902420
2022-10-01T11:16:16.201Z,50.902382
2022-10-01T11:17:16.182Z,50.902439
2022-10-01T11:18:16.152Z,50.902409
2022-10-01T11:19:16.142Z,50.902401
2022-10-01T11:20:20.447Z,50.902397
2022-10-01T11:21:17.121Z,50.902401
2022-10-01T11:22:16.119Z,50.902393
2022-10-01T11:23:16.113Z,50.902416
2022-10-01T11:24:16.106Z,50.902447